createdAt,value
2019-05-06T00:01:33.987Z,3.33
2019-05-06T00:04:04.624Z,3.77
2019-05-06T00:06:34.561Z,3.70
2019-05-06T00:09:04.086Z,4.43
2019-05-06T00:11:34.673Z,3.90
2019-05-06T00:14:03.957Z,3.20
2019-05-06T00:16:34.758Z,2.90
2019-05-06T00:19:04.774Z,3.67
2019-05-06T00:21:35.296Z,2.90
2019-05-06T00:24:04.033Z,3.37
2019-05-06T00:26:57.384Z,3.60
2019-05-06T00:29:27.197Z,3.13
2019-05-06T00:31:55.663Z,3.17
2019-05-06T00:34:24.643Z,3.20
2019-05-06T00:36:54.513Z,3.67
2019-05-06T00:39:44.283Z,3.53
2019-05-06T00:42:36.088Z,2.87
2019-05-06T00:45:05.621Z,3.20
2019-05-06T00:47:34.185Z,3.00
2019-05-06T00:50:04.220Z,4.57
2019-05-06T00:52:33.967Z,3.97
2019-05-06T00:55:04.171Z,3.53
2019-05-06T00:57:44.876Z,3.83
2019-05-06T01:00:18.528Z,4.07
2019-05-06T01:02:47.012Z,3.83
2019-05-06T01:05:15.541Z,4.47
2019-05-06T01:07:44.294Z,3.73
2019-05-06T01:10:14.252Z,3.23
2019-05-06T01:12:46.338Z,3.73
2019-05-06T01:15:17.439Z,4.17
2019-05-06T01:17:46.203Z,4.23
2019-05-06T01:20:14.741Z,4.50
2019-05-06T01:22:43.749Z,3.80
2019-05-06T01:25:14.191Z,3.60
2019-05-06T01:27:44.443Z,5.23
2019-05-06T01:30:13.746Z,4.37
2019-05-06T01:32:43.577Z,3.97
2019-05-06T01:35:13.997Z,5.90
2019-05-06T01:37:44.309Z,5.20
2019-05-06T01:40:30.567Z,4.20
2019-05-06T01:43:03.921Z,4.80
2019-05-06T01:45:32.391Z,4.13
2019-05-06T01:48:00.869Z,3.63
2019-05-06T01:50:29.333Z,4.13
2019-05-06T01:52:58.025Z,4.13
2019-05-06T01:55:26.813Z,4.03
2019-05-06T01:57:55.301Z,3.63
2019-05-06T02:00:24.270Z,4.03
2019-05-06T02:02:54.601Z,4.13
2019-05-06T02:05:24.259Z,4.00
2019-05-06T02:07:54.878Z,4.03
2019-05-06T02:10:23.829Z,4.83
2019-05-06T02:12:54.066Z,4.07
2019-05-06T02:15:23.963Z,3.27
2019-05-06T02:17:54.979Z,3.40
2019-05-06T02:20:24.584Z,4.03
2019-05-06T02:23:04.203Z,3.87
2019-05-06T02:25:38.210Z,4.70
2019-05-06T02:28:06.684Z,4.17
2019-05-06T02:30:54.527Z,4.10
2019-05-06T02:33:28.961Z,4.43
2019-05-06T02:36:01.311Z,5.20
2019-05-06T02:38:39.273Z,4.07
2019-05-06T02:41:03.680Z,4.43
2019-05-06T02:43:34.504Z,3.73
2019-05-06T02:46:04.245Z,4.17
2019-05-06T02:48:55.612Z,4.60
2019-05-06T02:51:26.518Z,3.87
2019-05-06T02:53:55.284Z,4.07
2019-05-06T02:56:24.113Z,4.13
2019-05-06T02:58:53.625Z,4.53
2019-05-06T03:01:23.335Z,4.60
2019-05-06T03:03:53.651Z,4.23
2019-05-06T03:06:23.839Z,3.90
2019-05-06T03:08:54.195Z,4.47
2019-05-06T03:11:23.991Z,4.10
2019-05-06T03:13:53.889Z,4.50
2019-05-06T03:16:23.752Z,3.77
2019-05-06T03:18:53.311Z,5.77
2019-05-06T03:21:44.805Z,5.67
2019-05-06T03:24:29.375Z,4.40
2019-05-06T03:26:57.869Z,4.07
2019-05-06T03:29:26.331Z,4.57
2019-05-06T03:31:56.470Z,4.50
2019-05-06T03:34:49.301Z,5.03
2019-05-06T03:36:56.380Z,3.80
2019-05-06T03:39:25.266Z,3.87
2019-05-06T03:41:54.360Z,4.27
2019-05-06T03:44:23.977Z,4.73
2019-05-06T03:47:15.041Z,4.17
2019-05-06T03:49:49.791Z,4.73
2019-05-06T03:52:16.261Z,4.47
2019-05-06T03:54:45.885Z,4.17
2019-05-06T03:57:14.538Z,5.43
2019-05-06T03:59:43.677Z,5.00
2019-05-06T04:02:13.354Z,4.27
2019-05-06T04:04:44.034Z,3.03
2019-05-06T04:07:13.869Z,4.67
2019-05-06T04:09:44.200Z,4.10
2019-05-06T04:12:13.063Z,4.50
2019-05-06T04:14:43.343Z,5.60
2019-05-06T04:17:24.007Z,3.97
2019-05-06T04:19:56.917Z,4.67
2019-05-06T04:22:37.925Z,5.10
2019-05-06T04:25:14.288Z,4.70
2019-05-06T04:28:04.629Z,4.57
2019-05-06T04:30:33.496Z,6.30
2019-05-06T04:33:03.257Z,6.13
2019-05-06T04:35:33.823Z,5.20
2019-05-06T04:38:03.282Z,5.40
2019-05-06T04:40:33.083Z,5.87
2019-05-06T04:43:03.540Z,4.90
2019-05-06T04:45:33.755Z,4.63
2019-05-06T04:48:03.503Z,5.60
2019-05-06T04:50:33.099Z,4.03
2019-05-06T04:53:05.655Z,5.47
2019-05-06T04:55:34.789Z,4.77
2019-05-06T04:58:04.453Z,5.47
2019-05-06T05:00:33.306Z,4.80
2019-05-06T05:03:03.009Z,5.43
2019-05-06T05:05:33.158Z,5.13
2019-05-06T05:08:02.606Z,6.00
2019-05-06T05:11:05.355Z,4.87
2019-05-06T05:13:53.217Z,4.90
2019-05-06T05:16:45.993Z,5.23
2019-05-06T05:19:14.738Z,4.83
2019-05-06T05:21:43.224Z,5.23
2019-05-06T05:24:12.058Z,4.10
2019-05-06T05:26:43.338Z,5.30
2019-05-06T05:29:12.350Z,5.70
2019-05-06T05:31:40.900Z,4.73
2019-05-06T05:34:09.382Z,5.87
2019-05-06T05:36:37.842Z,4.77
2019-05-06T05:39:07.420Z,5.00
2019-05-06T05:41:35.927Z,6.00
2019-05-06T05:44:11.907Z,5.03
2019-05-06T05:46:40.026Z,4.40
2019-05-06T05:49:18.396Z,5.13
2019-05-06T05:51:45.802Z,5.07
2019-05-06T05:54:14.270Z,5.60
2019-05-06T05:56:43.179Z,5.20
2019-05-06T05:59:12.265Z,4.50
2019-05-06T06:01:43.279Z,4.87
2019-05-06T06:04:12.871Z,4.53
2019-05-06T06:06:42.350Z,5.23
2019-05-06T06:09:12.686Z,4.43
2019-05-06T06:11:53.155Z,4.37
2019-05-06T06:14:53.384Z,4.77
2019-05-06T06:17:33.054Z,4.43
2019-05-06T06:20:04.083Z,3.80
2019-05-06T06:22:33.088Z,5.00
2019-05-06T06:25:04.088Z,4.63
2019-05-06T06:27:48.227Z,4.47
2019-05-06T06:30:16.721Z,4.30
2019-05-06T06:32:45.202Z,4.77
2019-05-06T06:35:25.139Z,4.60
2019-05-06T06:38:08.879Z,6.30
2019-05-06T06:40:37.665Z,4.57
2019-05-06T06:43:12.307Z,4.53
2019-05-06T06:45:42.190Z,4.53
2019-05-06T06:48:12.373Z,4.67
2019-05-06T06:50:42.632Z,5.30
2019-05-06T06:53:12.310Z,4.50
2019-05-06T06:55:42.726Z,5.20
2019-05-06T06:58:29.189Z,4.77
2019-05-06T07:01:17.188Z,5.30
2019-05-06T07:03:53.369Z,4.40
2019-05-06T07:06:36.899Z,4.27
2019-05-06T07:09:06.233Z,3.87
2019-05-06T07:11:34.711Z,4.17
2019-05-06T07:14:03.176Z,3.87
2019-05-06T07:16:32.776Z,3.23
2019-05-06T07:19:03.127Z,3.30
2019-05-06T07:21:39.434Z,3.13
2019-05-06T07:24:08.244Z,3.70
2019-05-06T07:26:42.730Z,3.67
2019-05-06T07:29:17.245Z,3.80
2019-05-06T07:31:42.647Z,3.73
2019-05-06T07:34:11.982Z,2.90
2019-05-06T07:36:42.964Z,3.70
2019-05-06T07:39:14.742Z,3.07
2019-05-06T07:41:49.322Z,3.30
2019-05-06T07:44:42.892Z,3.13
2019-05-06T07:47:23.766Z,3.33
2019-05-06T07:49:53.120Z,4.13
2019-05-06T07:52:23.096Z,3.00
2019-05-06T07:54:53.372Z,3.10
2019-05-06T07:57:22.172Z,3.40
2019-05-06T07:59:52.533Z,3.13
2019-05-06T08:02:22.978Z,3.80
2019-05-06T08:04:52.946Z,3.13
2019-05-06T08:07:22.313Z,3.80
2019-05-06T08:09:52.883Z,3.43
2019-05-06T08:12:22.312Z,3.40
2019-05-06T08:14:52.362Z,3.17
2019-05-06T08:17:34.127Z,2.90
2019-05-06T08:20:03.188Z,2.97
2019-05-06T08:22:52.976Z,3.40
2019-05-06T08:25:22.950Z,2.83
2019-05-06T08:27:53.185Z,2.43
2019-05-06T08:30:23.117Z,3.37
2019-05-06T08:32:52.846Z,2.60
2019-05-06T08:35:22.731Z,3.20
2019-05-06T08:37:53.109Z,2.37
2019-05-06T08:40:23.032Z,2.67
2019-05-06T08:42:53.198Z,2.30
2019-05-06T08:45:22.094Z,3.40
2019-05-06T08:47:52.389Z,3.20
2019-05-06T08:50:27.421Z,2.67
2019-05-06T08:53:05.834Z,3.10
2019-05-06T08:55:36.937Z,3.27
2019-05-06T08:58:05.436Z,2.70
2019-05-06T09:00:36.833Z,2.70
2019-05-06T09:03:05.343Z,2.97
2019-05-06T09:05:33.760Z,2.70
2019-05-06T09:08:03.588Z,3.00
2019-05-06T09:10:32.648Z,3.20
2019-05-06T09:13:02.044Z,3.47
2019-05-06T09:15:32.736Z,2.97
2019-05-06T09:18:02.973Z,2.93
2019-05-06T09:20:32.626Z,2.53
2019-05-06T09:23:04.489Z,2.37
2019-05-06T09:25:32.282Z,2.43
2019-05-06T09:28:15.969Z,3.53
2019-05-06T09:30:48.032Z,3.77
2019-05-06T09:33:19.116Z,3.53
2019-05-06T09:35:47.599Z,3.73
2019-05-06T09:38:16.633Z,3.27
2019-05-06T09:40:45.723Z,3.67
2019-05-06T09:43:14.205Z,3.07
2019-05-06T09:45:42.757Z,4.13
2019-05-06T09:48:17.518Z,4.40
2019-05-06T09:50:47.397Z,3.80
2019-05-06T09:53:20.087Z,2.80
2019-05-06T09:56:06.388Z,2.97
2019-05-06T09:58:37.271Z,2.40
2019-05-06T10:01:05.979Z,2.40
2019-05-06T10:03:34.463Z,2.03
2019-05-06T10:06:02.932Z,2.53
2019-05-06T10:08:32.286Z,1.80
2019-05-06T10:11:02.903Z,2.23
2019-05-06T10:13:32.715Z,2.17
2019-05-06T10:16:03.027Z,2.13
2019-05-06T10:18:31.846Z,1.97
2019-05-06T10:21:00.767Z,2.10
2019-05-06T10:23:29.264Z,2.00
2019-05-06T10:25:58.055Z,2.30
2019-05-06T10:28:35.375Z,2.10
2019-05-06T10:31:05.942Z,1.53
2019-05-06T10:33:34.426Z,1.50
2019-05-06T10:36:03.977Z,1.30
2019-05-06T10:38:55.591Z,0.90
2019-05-06T10:41:27.697Z,1.43
2019-05-06T10:44:22.576Z,1.30
2019-05-06T10:46:52.728Z,1.50
2019-05-06T10:49:22.559Z,1.97
2019-05-06T10:51:59.389Z,2.17
2019-05-06T10:54:27.853Z,1.10
2019-05-06T10:57:02.285Z,1.30
2019-05-06T10:59:32.643Z,1.50
2019-05-06T11:02:08.164Z,1.43
2019-05-06T11:04:36.625Z,1.43
2019-05-06T11:07:05.085Z,1.70
2019-05-06T11:09:33.850Z,1.77
2019-05-06T11:12:03.318Z,1.50
2019-05-06T11:14:32.888Z,2.13
2019-05-06T11:17:04.922Z,1.97
2019-05-06T11:19:33.062Z,1.40
2019-05-06T11:22:03.634Z,1.70
2019-05-06T11:24:32.680Z,1.77
2019-05-06T11:27:03.380Z,2.03
2019-05-06T11:29:33.915Z,1.80
2019-05-06T11:32:23.660Z,2.20
2019-05-06T11:34:57.978Z,1.87
2019-05-06T11:37:50.205Z,2.10
2019-05-06T11:40:16.955Z,2.20
2019-05-06T11:42:45.736Z,2.83
2019-05-06T11:45:14.213Z,1.87
2019-05-06T11:47:42.798Z,2.03
2019-05-06T11:50:12.918Z,1.57
2019-05-06T11:52:43.327Z,1.97
2019-05-06T11:55:16.872Z,1.67
2019-05-06T11:57:44.717Z,1.50
2019-05-06T12:00:17.202Z,1.90
2019-05-06T12:02:48.616Z,1.93
2019-05-06T12:05:15.943Z,2.03
2019-05-06T12:08:00.425Z,2.33
2019-05-06T12:10:14.604Z,2.07
2019-05-06T12:12:43.324Z,1.87
2019-05-06T12:15:12.609Z,2.03
2019-05-06T12:17:42.135Z,2.53
2019-05-06T12:20:13.083Z,2.60
2019-05-06T12:22:42.333Z,2.47
2019-05-06T12:25:14.693Z,2.07
2019-05-06T12:27:44.377Z,1.97
2019-05-06T12:30:14.029Z,1.60
2019-05-06T12:32:48.725Z,1.73
2019-05-06T12:35:17.182Z,1.93
2019-05-06T12:37:47.371Z,2.00
2019-05-06T12:40:15.839Z,1.70
2019-05-06T12:42:53.525Z,2.43
2019-05-06T12:45:34.728Z,2.23
2019-05-06T12:48:05.590Z,2.00
2019-05-06T12:50:34.035Z,1.50
2019-05-06T12:53:02.498Z,1.90
2019-05-06T12:55:33.457Z,2.40
2019-05-06T12:58:02.995Z,2.13
2019-05-06T13:00:33.169Z,1.83
2019-05-06T13:03:02.285Z,1.70
2019-05-06T13:05:31.949Z,1.53
2019-05-06T13:08:05.505Z,2.20
2019-05-06T13:10:33.501Z,2.20
2019-05-06T13:13:05.200Z,1.93
2019-05-06T13:15:33.991Z,1.90
2019-05-06T13:18:07.040Z,1.63
2019-05-06T13:20:34.295Z,1.60
2019-05-06T13:23:18.905Z,1.60
2019-05-06T13:25:45.156Z,1.60
2019-05-06T13:28:12.939Z,1.53
2019-05-06T13:30:43.339Z,1.70
2019-05-06T13:33:18.845Z,1.80
2019-05-06T13:35:47.405Z,1.40
2019-05-06T13:38:16.116Z,2.07
2019-05-06T13:40:53.849Z,1.60
2019-05-06T13:43:39.754Z,2.13
2019-05-06T13:46:28.032Z,1.83
2019-05-06T13:49:14.072Z,2.10
2019-05-06T13:51:46.891Z,2.43
2019-05-06T13:54:16.148Z,1.93
2019-05-06T13:56:44.670Z,1.73
2019-05-06T13:59:13.391Z,1.80
2019-05-06T14:02:06.127Z,1.77
2019-05-06T14:04:32.649Z,1.80
2019-05-06T14:07:03.419Z,1.80
2019-05-06T14:09:37.236Z,1.63
2019-05-06T14:12:02.640Z,2.43
2019-05-06T14:14:32.235Z,1.73
2019-05-06T14:17:00.838Z,1.63
2019-05-06T14:19:29.340Z,1.80
2019-05-06T14:21:57.828Z,1.83
2019-05-06T14:24:26.726Z,1.93
2019-05-06T14:26:59.658Z,2.20
2019-05-06T14:29:33.121Z,1.97
2019-05-06T14:32:01.969Z,1.60
2019-05-06T14:34:32.494Z,1.53
2019-05-06T14:37:00.707Z,1.70
2019-05-06T14:39:49.112Z,1.40
2019-05-06T14:42:04.319Z,1.40
2019-05-06T14:44:32.946Z,1.57
2019-05-06T14:47:06.087Z,1.67
2019-05-06T14:49:34.800Z,1.53
2019-05-06T14:52:03.266Z,1.67
2019-05-06T14:54:33.088Z,1.40
2019-05-06T14:57:12.366Z,1.37
2019-05-06T14:59:42.182Z,1.50
2019-05-06T15:02:13.083Z,1.63
2019-05-06T15:04:43.483Z,1.43
2019-05-06T15:07:12.676Z,1.50
2019-05-06T15:09:55.695Z,1.83
2019-05-06T15:12:13.057Z,1.53
2019-05-06T15:14:42.539Z,1.73
2019-05-06T15:17:11.202Z,2.03
2019-05-06T15:19:39.938Z,1.40
2019-05-06T15:22:08.427Z,1.93
2019-05-06T15:24:36.930Z,2.50
2019-05-06T15:27:05.674Z,1.77
2019-05-06T15:29:34.108Z,1.93
2019-05-06T15:32:22.194Z,1.50
2019-05-06T15:35:12.870Z,1.40
2019-05-06T15:37:49.070Z,1.60
2019-05-06T15:40:31.130Z,1.47
2019-05-06T15:42:47.782Z,1.37
2019-05-06T15:45:16.238Z,1.97
2019-05-06T15:47:45.200Z,1.70
2019-05-06T15:50:14.913Z,1.30
2019-05-06T15:52:43.812Z,1.90
2019-05-06T15:55:12.404Z,1.40
2019-05-06T15:57:43.265Z,1.90
2019-05-06T16:00:13.021Z,1.50
2019-05-06T16:02:42.041Z,1.50
2019-05-06T16:05:14.061Z,1.50
2019-05-06T16:07:43.350Z,2.20
2019-05-06T16:10:13.310Z,2.60
2019-05-06T16:12:43.876Z,2.50
2019-05-06T16:15:12.949Z,1.70
2019-05-06T16:17:42.673Z,1.73
2019-05-06T16:20:12.936Z,2.53
2019-05-06T16:22:44.400Z,2.23
2019-05-06T16:25:13.881Z,2.10
2019-05-06T16:27:44.128Z,2.30
2019-05-06T16:30:14.604Z,2.27
2019-05-06T16:32:43.426Z,1.83
2019-05-06T16:35:14.143Z,1.97
2019-05-06T16:37:42.216Z,1.67
2019-05-06T16:40:12.340Z,1.80
2019-05-06T16:42:42.564Z,2.37
2019-05-06T16:45:12.550Z,1.47
2019-05-06T16:47:44.512Z,1.93
2019-05-06T16:50:13.413Z,2.33
2019-05-06T16:52:44.865Z,1.53
2019-05-06T16:55:17.646Z,1.80
2019-05-06T16:57:52.535Z,2.33
2019-05-06T17:00:22.790Z,2.43
2019-05-06T17:03:00.869Z,2.00
2019-05-06T17:05:44.390Z,1.87
2019-05-06T17:08:12.894Z,1.93
2019-05-06T17:10:43.303Z,1.87
2019-05-06T17:13:12.653Z,1.60
2019-05-06T17:15:41.244Z,1.40
2019-05-06T17:18:09.686Z,1.70
2019-05-06T17:20:38.134Z,2.07
2019-05-06T17:23:06.601Z,1.60
2019-05-06T17:25:35.044Z,1.43
2019-05-06T17:28:25.961Z,1.60
2019-05-06T17:31:03.866Z,1.10
2019-05-06T17:33:37.397Z,1.40
2019-05-06T17:36:06.999Z,1.13
2019-05-06T17:38:41.911Z,1.57
2019-05-06T17:41:12.308Z,1.57
2019-05-06T17:43:41.386Z,1.07
2019-05-06T17:46:12.672Z,1.77
2019-05-06T17:48:52.842Z,1.40
2019-05-06T17:51:25.406Z,1.10
2019-05-06T17:53:54.305Z,1.03
2019-05-06T17:56:22.836Z,1.03
2019-05-06T17:58:53.179Z,0.90
2019-05-06T18:01:26.818Z,1.00
2019-05-06T18:03:55.305Z,0.77
2019-05-06T18:06:23.773Z,1.20
2019-05-06T18:08:52.878Z,1.07
2019-05-06T18:11:22.408Z,0.97
2019-05-06T18:13:52.150Z,2.00
2019-05-06T18:16:22.236Z,1.10
2019-05-06T18:18:52.351Z,1.10
2019-05-06T18:21:22.935Z,1.30
2019-05-06T18:23:52.275Z,1.20
2019-05-06T18:26:22.978Z,1.00
2019-05-06T18:28:52.700Z,1.10
2019-05-06T18:31:22.137Z,1.07
2019-05-06T18:33:52.811Z,0.93
2019-05-06T18:36:22.682Z,1.33
2019-05-06T18:38:52.590Z,0.97
2019-05-06T18:41:23.409Z,1.20
2019-05-06T18:43:53.547Z,1.67
2019-05-06T18:46:21.655Z,1.13
2019-05-06T18:48:52.455Z,1.20
2019-05-06T18:51:22.433Z,1.03
2019-05-06T18:53:52.408Z,1.13
2019-05-06T18:56:22.383Z,1.67
2019-05-06T18:58:52.989Z,1.53
2019-05-06T19:01:23.281Z,1.20
2019-05-06T19:03:58.808Z,1.17
2019-05-06T19:06:27.292Z,0.90
2019-05-06T19:09:07.345Z,1.20
2019-05-06T19:11:35.815Z,1.23
2019-05-06T19:14:04.254Z,1.63
2019-05-06T19:16:48.251Z,1.23
2019-05-06T19:19:05.864Z,2.47
2019-05-06T19:21:33.158Z,3.77
2019-05-06T19:24:02.830Z,1.77
2019-05-06T19:26:32.671Z,1.80
2019-05-06T19:29:04.379Z,1.20
2019-05-06T19:31:32.250Z,1.70
2019-05-06T19:34:03.187Z,1.27
2019-05-06T19:36:34.152Z,1.43
2019-05-06T19:39:02.268Z,1.27
2019-05-06T19:41:33.161Z,1.37
2019-05-06T19:44:02.211Z,1.40
2019-05-06T19:46:32.571Z,1.40
2019-05-06T19:49:01.824Z,1.50
2019-05-06T19:51:32.868Z,1.33
2019-05-06T19:54:02.245Z,1.87
2019-05-06T19:56:30.745Z,1.63
2019-05-06T19:58:59.532Z,1.43
2019-05-06T20:01:27.985Z,1.27
2019-05-06T20:03:56.476Z,1.47
2019-05-06T20:06:42.673Z,1.43
2019-05-06T20:09:45.560Z,1.40
2019-05-06T20:12:29.784Z,1.40
2019-05-06T20:15:17.311Z,1.27
2019-05-06T20:17:46.046Z,1.57
2019-05-06T20:20:14.513Z,1.90
2019-05-06T20:22:43.161Z,1.43
2019-05-06T20:25:12.513Z,1.60
2019-05-06T20:27:42.113Z,1.13
2019-05-06T20:30:10.849Z,1.60
2019-05-06T20:32:39.532Z,1.40
2019-05-06T20:35:08.098Z,1.17
2019-05-06T20:37:36.572Z,1.30
2019-05-06T20:40:05.272Z,1.67
2019-05-06T20:42:33.973Z,1.40
2019-05-06T20:45:02.453Z,1.70
2019-05-06T20:47:32.010Z,1.70
2019-05-06T20:50:02.334Z,1.73
2019-05-06T20:52:33.070Z,1.57
2019-05-06T20:55:02.894Z,1.33
2019-05-06T20:57:31.421Z,1.60
2019-05-06T20:59:59.905Z,1.87
2019-05-06T21:02:28.462Z,2.00
2019-05-06T21:04:56.928Z,1.83
2019-05-06T21:07:25.397Z,1.10
2019-05-06T21:09:53.870Z,2.10
2019-05-06T21:12:22.342Z,1.10
2019-05-06T21:14:50.797Z,2.17
2019-05-06T21:17:19.506Z,1.33
2019-05-06T21:19:47.988Z,1.97
2019-05-06T21:22:16.425Z,1.00
2019-05-06T21:24:44.908Z,1.00
2019-05-06T21:27:13.375Z,1.50
2019-05-06T21:29:42.190Z,2.40
2019-05-06T21:32:10.596Z,1.40
2019-05-06T21:34:39.080Z,1.67
2019-05-06T21:37:07.549Z,1.63
2019-05-06T21:39:36.028Z,1.27
2019-05-06T21:42:04.509Z,3.17
2019-05-06T21:44:33.009Z,4.27
2019-05-06T21:47:02.945Z,1.77
2019-05-06T21:49:32.671Z,1.40
2019-05-06T21:52:02.201Z,1.27
2019-05-06T21:54:32.729Z,2.13
2019-05-06T21:57:02.902Z,1.17
2019-05-06T21:59:31.882Z,2.80
2019-05-06T22:02:00.744Z,1.50
2019-05-06T22:04:29.201Z,1.47
2019-05-06T22:06:57.943Z,1.30
2019-05-06T22:09:26.410Z,1.93
2019-05-06T22:11:54.888Z,2.20
2019-05-06T22:14:23.378Z,2.00
2019-05-06T22:16:51.862Z,1.50
2019-05-06T22:19:20.360Z,1.00
2019-05-06T22:22:03.179Z,2.30
2019-05-06T22:24:47.892Z,1.77
2019-05-06T22:27:16.522Z,1.47
2019-05-06T22:29:45.006Z,1.40
2019-05-06T22:32:14.966Z,1.83
2019-05-06T22:34:43.583Z,1.50
2019-05-06T22:37:12.720Z,1.20
2019-05-06T22:39:43.495Z,1.70
2019-05-06T22:42:11.574Z,2.03
2019-05-06T22:44:40.049Z,1.70
2019-05-06T22:47:08.536Z,2.90
2019-05-06T22:49:37.242Z,2.00
2019-05-06T22:52:05.701Z,2.07
2019-05-06T22:54:34.198Z,1.40
2019-05-06T22:57:02.658Z,1.30
2019-05-06T22:59:32.980Z,2.50
2019-05-06T23:02:26.436Z,1.30
2019-05-06T23:04:57.565Z,1.43
2019-05-06T23:07:26.034Z,1.60
2019-05-06T23:09:54.504Z,2.03
2019-05-06T23:12:23.211Z,1.90
2019-05-06T23:14:52.800Z,1.23
2019-05-06T23:17:21.425Z,1.87
2019-05-06T23:19:49.898Z,1.80
2019-05-06T23:22:18.362Z,2.00
2019-05-06T23:24:46.848Z,1.47
2019-05-06T23:27:15.402Z,2.33
2019-05-06T23:29:45.049Z,1.80
2019-05-06T23:32:14.122Z,1.83
2019-05-06T23:34:43.228Z,1.87
2019-05-06T23:37:22.507Z,1.10
2019-05-06T23:40:34.414Z,1.30
2019-05-06T23:43:39.169Z,1.80
2019-05-06T23:46:44.049Z,1.73
2019-05-06T23:49:49.454Z,1.93
2019-05-06T23:52:54.550Z,1.57
2019-05-06T23:55:59.274Z,1.40
2019-05-06T23:58:26.600Z,2.00
